Time;durP1;ratioP1;P1;durP2;ratioP2;P2;SDS_P1;SDS_P2;PMS_P1;PMS_P2;Temp;Humidity;BMP_temperature;BMP_pressure;BME280_temperature;BME280_humidity;BME280_pressure;Samples;Min_cycle;Max_cycle;Signal;HPM_P1;HPM_P2
2024/03/28 00:01:36;;;;;;;;;;;20.50;48.70;;;;;;1537663;76;667;-70
2024/03/28 00:03:38;;;;;;;;;;;20.50;48.70;;;;;;1541148;76;757;-67
2024/03/28 00:05:40;;;;;;;;;;;20.50;48.70;;;;;;1528202;76;1599;-69
2024/03/28 00:07:42;;;;;;;;;;;20.90;49.00;;;;;;1520021;76;747;-69
2024/03/28 00:09:44;;;;;;;;;;;20.50;48.80;;;;;;1529160;76;727;-68
2024/03/28 00:11:46;;;;;;;;;;;20.50;48.70;;;;;;1527732;76;642;-70
2024/03/28 00:13:48;;;;;;;;;;;20.50;48.80;;;;;;1546160;75;1916;-67
2024/03/28 00:16:00;;;;;;;;;;;20.50;48.70;;;;;;1521317;76;1179;-69
2024/03/28 00:18:01;;;;;;;;;;;20.50;48.80;;;;;;1507423;77;687;-71
2024/03/28 00:20:04;;;;;;;;;;;20.50;48.80;;;;;;1513389;77;1587;-69
2024/03/28 00:22:07;;;;;;;;;;;20.50;48.80;;;;;;1512673;77;729;-70
2024/03/28 00:24:09;;;;;;;;;;;20.50;48.80;;;;;;1575735;73;670;-69
2024/03/28 00:26:11;;;;;;;;;;;20.50;48.80;;;;;;1566945;73;1129;-69
2024/03/28 00:28:12;;;;;;;;;;;20.70;48.90;;;;;;1584336;73;738;-69
2024/03/28 00:30:15;;;;;;;;;;;20.50;48.80;;;;;;1583493;73;805;-68
2024/03/28 00:32:16;;;;;;;;;;;20.50;48.80;;;;;;1572408;74;694;-69
2024/03/28 00:34:18;;;;;;;;;;;20.50;48.80;;;;;;1578973;73;1929;-73
2024/03/28 00:36:20;;;;;;;;;;;20.50;48.80;;;;;;1563827;73;1137;-71
2024/03/28 00:38:23;;;;;;;;;;;20.50;48.80;;;;;;1573210;73;655;-70
2024/03/28 00:40:24;;;;;;;;;;;20.50;48.80;;;;;;1571573;73;778;-71
2024/03/28 00:42:26;;;;;;;;;;;20.50;48.90;;;;;;1586482;73;728;-67
2024/03/28 00:44:28;;;;;;;;;;;20.50;48.90;;;;;;1577268;73;753;-69
2024/03/28 00:46:30;;;;;;;;;;;20.50;48.90;;;;;;1568780;73;1147;-68
2024/03/28 00:48:32;;;;;;;;;;;20.50;48.90;;;;;;1570402;74;1307;-69
2024/03/28 00:50:34;;;;;;;;;;;20.50;48.90;;;;;;1577353;73;703;-67
2024/03/28 00:52:36;;;;;;;;;;;20.50;48.90;;;;;;1576679;73;714;-70
2024/03/28 00:54:37;;;;;;;;;;;20.50;48.90;;;;;;1578863;74;1938;-72
2024/03/28 00:56:40;;;;;;;;;;;20.50;48.90;;;;;;1583586;74;1163;-70
2024/03/28 00:58:42;;;;;;;;;;;20.50;48.90;;;;;;1582837;74;731;-68
2024/03/28 01:00:47;;;;;;;;;;;20.50;48.90;;;;;;1575134;74;660;-68
2024/03/28 01:02:49;;;;;;;;;;;20.50;48.90;;;;;;1570633;74;1275;-67
2024/03/28 01:04:50;;;;;;;;;;;20.50;48.90;;;;;;1580229;73;673;-70
2024/03/28 01:06:52;;;;;;;;;;;20.50;48.90;;;;;;1588453;73;1121;-70
2024/03/28 01:08:54;;;;;;;;;;;20.50;48.90;;;;;;1570853;73;759;-67
2024/03/28 01:10:56;;;;;;;;;;;20.50;48.90;;;;;;1576126;73;834;-68
2024/03/28 01:12:58;;;;;;;;;;;20.50;48.90;;;;;;1588888;73;801;-67
2024/03/28 01:15:00;;;;;;;;;;;20.40;48.90;;;;;;1576683;74;1945;-69
2024/03/28 01:17:02;;;;;;;;;;;20.50;49.00;;;;;;1575600;73;1525;-68
2024/03/28 01:19:03;;;;;;;;;;;20.50;49.00;;;;;;1571145;74;736;-67
2024/03/28 01:21:06;;;;;;;;;;;20.50;49.00;;;;;;1581900;73;754;-68
2024/03/28 01:23:08;;;;;;;;;;;20.50;49.10;;;;;;1574598;74;674;-71
2024/03/28 01:25:09;;;;;;;;;;;20.40;49.00;;;;;;1577545;74;1140;-67
2024/03/28 01:27:11;;;;;;;;;;;20.50;49.10;;;;;;1576077;74;752;-67
2024/03/28 01:29:14;;;;;;;;;;;20.50;49.10;;;;;;1579273;73;740;-69
2024/03/28 01:31:16;;;;;;;;;;;20.40;49.00;;;;;;1566487;73;1665;-69
2024/03/28 01:33:17;;;;;;;;;;;20.50;49.10;;;;;;1566608;73;666;-72
2024/03/28 01:35:20;;;;;;;;;;;20.40;49.10;;;;;;1582277;73;1946;-68
2024/03/28 01:37:22;;;;;;;;;;;20.50;49.10;;;;;;1582793;73;782;-68
2024/03/28 01:39:24;;;;;;;;;;;20.50;49.10;;;;;;1582016;74;727;-69
2024/03/28 01:41:25;;;;;;;;;;;20.50;49.20;;;;;;1575125;74;763;-68
2024/03/28 01:43:27;;;;;;;;;;;20.40;49.10;;;;;;1583388;73;1552;-69
2024/03/28 01:45:29;;;;;;;;;;;20.40;49.10;;;;;;1572449;73;1083;-71
2024/03/28 01:47:31;;;;;;;;;;;20.50;49.20;;;;;;1571464;73;798;-70
2024/03/28 01:49:34;;;;;;;;;;;20.50;49.20;;;;;;1578735;73;785;-68
2024/03/28 01:51:36;;;;;;;;;;;20.50;49.20;;;;;;1586795;73;656;-70
2024/03/28 01:53:38;;;;;;;;;;;20.40;49.20;;;;;;1591500;73;1940;-68
2024/03/28 01:55:39;;;;;;;;;;;20.40;49.20;;;;;;1598378;73;1148;-67
2024/03/28 01:57:41;;;;;;;;;;;20.50;49.20;;;;;;1575991;73;1335;-68
2024/03/28 01:59:43;;;;;;;;;;;20.50;49.20;;;;;;1587746;73;750;-68
2024/03/28 02:01:45;;;;;;;;;;;20.50;49.30;;;;;;1576931;73;719;-66
2024/03/28 02:03:47;;;;;;;;;;;20.40;49.20;;;;;;1583296;73;848;-67
2024/03/28 02:05:50;;;;;;;;;;;20.50;49.30;;;;;;1587067;73;1163;-68
2024/03/28 02:07:52;;;;;;;;;;;20.50;49.30;;;;;;1593264;73;825;-67
2024/03/28 02:09:53;;;;;;;;;;;20.50;49.40;;;;;;1579642;73;751;-68
2024/03/28 02:11:56;;;;;;;;;;;20.50;49.40;;;;;;1581158;73;1568;-68
2024/03/28 02:13:58;;;;;;;;;;;20.50;49.30;;;;;;1578843;73;1959;-70
2024/03/28 02:15:59;;;;;;;;;;;20.40;49.20;;;;;;1586704;73;1141;-70
2024/03/28 02:18:01;;;;;;;;;;;20.50;49.40;;;;;;1580874;73;800;-67
2024/03/28 02:20:03;;;;;;;;;;;20.50;49.40;;;;;;1576624;74;757;-69
2024/03/28 02:22:06;;;;;;;;;;;20.50;49.40;;;;;;1596811;73;666;-68
2024/03/28 02:24:08;;;;;;;;;;;20.40;49.40;;;;;;1571778;73;687;-69
2024/03/28 02:26:09;;;;;;;;;;;20.50;49.40;;;;;;1579970;73;1636;-68
2024/03/28 02:28:11;;;;;;;;;;;20.40;49.30;;;;;;1591612;73;801;-67
2024/03/28 02:30:13;;;;;;;;;;;20.50;49.50;;;;;;1571535;74;789;-68
2024/03/28 02:32:15;;;;;;;;;;;20.50;49.40;;;;;;1587565;74;722;-68
2024/03/28 02:34:17;;;;;;;;;;;20.40;49.40;;;;;;1600901;73;1957;-71
2024/03/28 02:36:19;;;;;;;;;;;20.50;49.50;;;;;;1562049;73;1127;-71
2024/03/28 02:38:21;;;;;;;;;;;20.50;49.50;;;;;;1578804;74;781;-70
2024/03/28 02:40:23;;;;;;;;;;;20.40;49.40;;;;;;1590822;73;1217;-67
2024/03/28 02:42:24;;;;;;;;;;;20.50;49.50;;;;;;1573412;74;759;-70
2024/03/28 02:44:26;;;;;;;;;;;20.50;49.50;;;;;;1568342;73;758;-68
2024/03/28 02:46:28;;;;;;;;;;;20.50;49.50;;;;;;1562806;74;1134;-68
2024/03/28 02:48:30;;;;;;;;;;;20.40;49.40;;;;;;1571947;74;676;-69
2024/03/28 02:50:32;;;;;;;;;;;20.50;49.60;;;;;;1582184;73;800;-72
2024/03/28 02:52:34;;;;;;;;;;;20.50;49.60;;;;;;1573906;73;795;-68
2024/03/28 02:54:36;;;;;;;;;;;20.50;49.60;;;;;;1597745;73;1935;-69
2024/03/28 02:56:38;;;;;;;;;;;20.50;49.60;;;;;;1584481;73;1155;-69
2024/03/28 02:58:39;;;;;;;;;;;20.50;49.60;;;;;;1565344;73;739;-68
2024/03/28 03:00:42;;;;;;;;;;;20.40;49.50;;;;;;1570932;74;845;-72
2024/03/28 03:02:43;;;;;;;;;;;20.50;49.60;;;;;;1584537;73;668;-68
2024/03/28 03:04:45;;;;;;;;;;;20.50;49.70;;;;;;1586232;73;763;-68
2024/03/28 03:06:47;;;;;;;;;;;20.50;49.60;;;;;;1579356;74;1091;-70
2024/03/28 03:08:49;;;;;;;;;;;20.50;49.70;;;;;;1571006;73;1327;-71
2024/03/28 03:10:51;;;;;;;;;;;20.40;49.60;;;;;;1569120;74;692;-72
2024/03/28 03:12:53;;;;;;;;;;;20.50;49.70;;;;;;1579959;74;836;-72
2024/03/28 03:14:55;;;;;;;;;;;20.50;49.70;;;;;;1582308;74;1937;-69
2024/03/28 03:16:57;;;;;;;;;;;20.50;49.70;;;;;;1587582;73;1176;-69
2024/03/28 03:19:00;;;;;;;;;;;20.50;49.70;;;;;;1575848;74;795;-68
2024/03/28 03:21:04;;;;;;;;;;;20.50;49.70;;;;;;1585465;73;724;-68
2024/03/28 03:23:06;;;;;;;;;;;20.50;49.70;;;;;;1577419;73;1533;-70
2024/03/28 03:25:13;;;;;;;;;;;20.50;49.70;;;;;;1591181;73;1157;-68
2024/03/28 03:27:17;;;;;;;;;;;20.50;49.70;;;;;;1582998;73;702;-71
2024/03/28 03:36:19;;;;;;;;;;;20.40;49.70;;;;;;1581982;74;1648;-71
2024/03/28 03:38:21;;;;;;;;;;;20.50;49.80;;;;;;1589630;73;791;-68
2024/03/28 03:40:23;;;;;;;;;;;20.50;49.80;;;;;;1581001;73;784;-69
2024/03/28 03:42:25;;;;;;;;;;;20.50;49.80;;;;;;1578673;73;756;-67
2024/03/28 03:44:27;;;;;;;;;;;20.50;49.80;;;;;;1576394;74;795;-68
2024/03/28 03:46:29;;;;;;;;;;;20.40;49.80;;;;;;1573791;74;1155;-68
2024/03/28 03:48:31;;;;;;;;;;;20.50;49.80;;;;;;1579818;73;808;-66
2024/03/28 03:50:32;;;;;;;;;;;20.50;49.90;;;;;;1588320;73;1532;-70
2024/03/28 03:52:34;;;;;;;;;;;20.50;49.90;;;;;;1580198;74;621;-71
2024/03/28 03:54:36;;;;;;;;;;;20.50;49.90;;;;;;1575331;73;1938;-68
2024/03/28 03:56:38;;;;;;;;;;;20.50;50.00;;;;;;1583368;74;1139;-69
2024/03/28 03:58:40;;;;;;;;;;;20.70;50.00;;;;;;1568241;75;675;-69
2024/03/28 04:00:42;;;;;;;;;;;20.50;50.00;;;;;;1575976;73;668;-67
2024/03/28 04:02:44;;;;;;;;;;;20.50;50.00;;;;;;1582599;74;743;-72
2024/03/28 04:04:46;;;;;;;;;;;20.40;49.90;;;;;;1583817;73;1569;-69
2024/03/28 04:06:47;;;;;;;;;;;20.50;50.00;;;;;;1577216;73;1122;-70
2024/03/28 04:08:50;;;;;;;;;;;20.50;50.00;;;;;;1574163;74;814;-68
2024/03/28 04:10:52;;;;;;;;;;;20.50;50.00;;;;;;1574287;73;759;-70
2024/03/28 04:12:54;;;;;;;;;;;20.50;50.00;;;;;;1582306;73;742;-72
2024/03/28 04:14:56;;;;;;;;;;;20.50;50.00;;;;;;1587889;73;1936;-71
2024/03/28 04:16:57;;;;;;;;;;;20.50;50.10;;;;;;1584825;73;1148;-70
2024/03/28 04:18:59;;;;;;;;;;;20.50;50.10;;;;;;1583968;74;1340;-69
2024/03/28 04:21:01;;;;;;;;;;;20.50;50.10;;;;;;1577581;73;650;-69
2024/03/28 04:23:03;;;;;;;;;;;20.50;50.10;;;;;;1583184;73;828;-69
2024/03/28 04:25:05;;;;;;;;;;;20.50;50.20;;;;;;1587112;73;1099;-68
2024/03/28 04:27:07;;;;;;;;;;;20.50;50.20;;;;;;1576011;74;794;-69
2024/03/28 04:29:09;;;;;;;;;;;20.40;50.10;;;;;;1570156;73;712;-67
2024/03/28 04:31:11;;;;;;;;;;;20.50;50.20;;;;;;1539147;76;759;-69
2024/03/28 04:33:13;;;;;;;;;;;20.50;50.20;;;;;;1535215;75;1522;-68
2024/03/28 04:35:15;;;;;;;;;;;20.50;50.20;;;;;;1511495;77;1923;-68
2024/03/28 04:37:17;;;;;;;;;;;20.40;50.10;;;;;;1546187;75;736;-70
2024/03/28 04:39:19;;;;;;;;;;;20.50;50.30;;;;;;1514622;77;718;-69
2024/03/28 04:41:20;;;;;;;;;;;20.50;50.30;;;;;;1546943;75;704;-67
2024/03/28 04:43:22;;;;;;;;;;;20.50;50.30;;;;;;1513449;77;702;-68
2024/03/28 04:45:24;;;;;;;;;;;20.50;50.30;;;;;;1509410;76;1171;-70
2024/03/28 04:47:27;;;;;;;;;;;20.50;50.30;;;;;;1544745;75;1552;-70
2024/03/28 04:49:29;;;;;;;;;;;20.50;50.30;;;;;;1548616;75;797;-68
2024/03/28 04:51:31;;;;;;;;;;;20.40;50.20;;;;;;1542466;75;795;-69
2024/03/28 04:53:33;;;;;;;;;;;20.40;50.20;;;;;;1552505;75;671;-71
2024/03/28 04:55:35;;;;;;;;;;;20.50;50.40;;;;;;1542067;75;1929;-71
2024/03/28 04:57:37;;;;;;;;;;;20.40;50.20;;;;;;1517358;78;763;-71
2024/03/28 04:59:39;;;;;;;;;;;20.40;50.30;;;;;;1543018;75;812;-71
2024/03/28 05:01:41;;;;;;;;;;;20.40;50.30;;;;;;1514326;78;1519;-69
2024/03/28 05:03:43;;;;;;;;;;;20.60;50.40;;;;;;1519170;76;754;-69
2024/03/28 05:05:47;;;;;;;;;;;20.50;50.40;;;;;;1524472;76;1118;-67
2024/03/28 05:07:49;;;;;;;;;;;20.50;50.50;;;;;;1525744;76;702;-69
2024/03/28 05:09:51;;;;;;;;;;;20.50;50.50;;;;;;1518583;77;739;-70
2024/03/28 05:11:53;;;;;;;;;;;20.50;50.50;;;;;;1520625;76;729;-72
2024/03/28 05:13:55;;;;;;;;;;;20.50;50.50;;;;;;1524087;76;743;-68
2024/03/28 05:15:57;;;;;;;;;;;20.50;50.50;;;;;;1522686;76;1942;-69
2024/03/28 05:17:59;;;;;;;;;;;20.50;50.50;;;;;;1522056;76;765;-69
2024/03/28 05:20:01;;;;;;;;;;;20.50;50.50;;;;;;1521247;76;762;-72
2024/03/28 05:22:03;;;;;;;;;;;20.60;50.50;;;;;;1522406;76;710;-70
2024/03/28 05:24:05;;;;;;;;;;;20.50;50.50;;;;;;1513958;76;698;-70
2024/03/28 05:26:07;;;;;;;;;;;20.50;50.60;;;;;;1523275;76;1146;-69
2024/03/28 05:28:09;;;;;;;;;;;20.50;50.60;;;;;;1530561;76;737;-72
2024/03/28 05:30:11;;;;;;;;;;;20.50;49.60;;;;;;1523875;76;833;-69
2024/03/28 05:32:13;;;;;;;;;;;20.40;48.60;;;;;;1535662;76;748;-69
2024/03/28 05:34:15;;;;;;;;;;;20.40;47.60;;;;;;1584269;73;1539;-74
2024/03/28 05:36:17;;;;;;;;;;;20.40;48.20;;;;;;1576722;73;1953;-69
2024/03/28 05:38:19;;;;;;;;;;;20.30;46.80;;;;;;1587963;74;777;-71
2024/03/28 05:40:21;;;;;;;;;;;20.30;46.80;;;;;;1583335;73;743;-71
2024/03/28 05:42:23;;;;;;;;;;;20.20;46.30;;;;;;1582313;73;697;-70
2024/03/28 05:44:24;;;;;;;;;;;20.20;46.00;;;;;;1591212;73;654;-71
2024/03/28 05:46:27;;;;;;;;;;;20.20;45.90;;;;;;1575628;74;1129;-69
2024/03/28 05:48:29;;;;;;;;;;;20.10;45.90;;;;;;1575633;74;1538;-70
2024/03/28 05:50:31;;;;;;;;;;;20.10;46.10;;;;;;1587650;73;629;-73
2024/03/28 05:52:33;;;;;;;;;;;20.10;45.80;;;;;;1588386;73;795;-68
2024/03/28 05:54:35;;;;;;;;;;;20.20;45.20;;;;;;1579575;73;723;-69
2024/03/28 05:56:36;;;;;;;;;;;20.10;45.40;;;;;;1584794;73;1929;-67
2024/03/28 05:58:38;;;;;;;;;;;20.00;44.80;;;;;;1589882;73;849;-67
2024/03/28 06:00:40;;;;;;;;;;;20.00;44.90;;;;;;1581168;74;663;-69
2024/03/28 06:02:42;;;;;;;;;;;20.00;44.90;;;;;;1575116;74;1537;-67
2024/03/28 06:04:44;;;;;;;;;;;20.00;44.50;;;;;;1576903;74;634;-71
2024/03/28 06:06:46;;;;;;;;;;;19.90;44.10;;;;;;1578320;74;1060;-72
2024/03/28 06:08:48;;;;;;;;;;;19.80;44.00;;;;;;1579384;74;732;-70
2024/03/28 06:10:50;;;;;;;;;;;19.80;44.20;;;;;;1574987;74;811;-66
2024/03/28 06:12:51;;;;;;;;;;;19.80;44.70;;;;;;1572245;73;732;-70
2024/03/28 06:14:53;;;;;;;;;;;19.90;45.10;;;;;;1575058;73;723;-70
2024/03/28 06:16:56;;;;;;;;;;;19.80;45.20;;;;;;1573771;73;1929;-69
2024/03/28 06:18:58;;;;;;;;;;;19.90;45.50;;;;;;1573973;74;607;-69
2024/03/28 06:21:03;;;;;;;;;;;19.90;45.60;;;;;;1574290;73;742;-68
2024/03/28 06:23:06;;;;;;;;;;;19.90;45.80;;;;;;1573485;73;799;-71
2024/03/28 06:25:08;;;;;;;;;;;19.90;45.90;;;;;;1576311;73;1114;-67
2024/03/28 06:27:12;;;;;;;;;;;20.00;46.00;;;;;;1576519;73;743;-67
2024/03/28 06:29:14;;;;;;;;;;;20.00;46.00;;;;;;1578664;73;952;-72
2024/03/28 06:31:17;;;;;;;;;;;20.00;46.10;;;;;;1581897;73;1606;-69
2024/03/28 06:33:19;;;;;;;;;;;20.10;46.30;;;;;;1534617;76;855;-69
2024/03/28 06:35:22;;;;;;;;;;;20.00;46.30;;;;;;1516472;76;1969;-68
2024/03/28 06:37:24;;;;;;;;;;;20.10;46.50;;;;;;1516444;76;659;-68
2024/03/28 06:39:25;;;;;;;;;;;20.00;46.50;;;;;;1519721;76;968;-69
2024/03/28 06:41:27;;;;;;;;;;;20.10;46.60;;;;;;1510066;76;753;-70
2024/03/28 06:43:29;;;;;;;;;;;20.10;46.70;;;;;;1509584;76;722;-67
2024/03/28 06:45:31;;;;;;;;;;;20.10;46.70;;;;;;1520901;76;1591;-74
2024/03/28 06:47:33;;;;;;;;;;;20.10;46.80;;;;;;1515339;76;735;-71
2024/03/28 06:49:35;;;;;;;;;;;20.10;46.80;;;;;;1510548;76;666;-70
2024/03/28 06:51:37;;;;;;;;;;;20.10;46.90;;;;;;1513232;76;792;-71
2024/03/28 06:53:39;;;;;;;;;;;20.10;46.90;;;;;;1513121;76;800;-67
2024/03/28 06:55:41;;;;;;;;;;;20.10;47.00;;;;;;1516709;76;1997;-68
2024/03/28 06:57:43;;;;;;;;;;;20.10;47.00;;;;;;1517354;76;747;-71
2024/03/28 06:59:45;;;;;;;;;;;20.10;47.10;;;;;;1517327;76;1871;-68
2024/03/28 07:01:47;;;;;;;;;;;20.10;47.10;;;;;;1515489;76;700;-69
2024/03/28 07:03:50;;;;;;;;;;;20.20;47.10;;;;;;1517188;76;733;-69
2024/03/28 07:05:53;;;;;;;;;;;20.20;47.10;;;;;;1523583;76;1160;-71
2024/03/28 07:07:55;;;;;;;;;;;20.20;47.20;;;;;;1522616;76;616;-69
2024/03/28 07:09:57;;;;;;;;;;;20.10;47.20;;;;;;1523382;76;906;-71
2024/03/28 07:11:59;;;;;;;;;;;20.20;47.30;;;;;;1522891;76;1304;-72
2024/03/28 07:14:02;;;;;;;;;;;20.20;47.30;;;;;;1524987;76;863;-70
2024/03/28 07:16:04;;;;;;;;;;;20.20;47.30;;;;;;1517986;76;1922;-71
2024/03/28 07:18:07;;;;;;;;;;;20.20;47.30;;;;;;1523498;76;720;-71
2024/03/28 07:20:10;;;;;;;;;;;20.20;47.30;;;;;;1524336;76;733;-69
2024/03/28 07:22:12;;;;;;;;;;;20.30;47.40;;;;;;1527681;76;667;-70
2024/03/28 07:24:15;;;;;;;;;;;20.30;47.40;;;;;;1518741;76;841;-72
2024/03/28 07:26:17;;;;;;;;;;;20.30;47.40;;;;;;1523051;76;1594;-68
2024/03/28 07:28:19;;;;;;;;;;;20.30;47.40;;;;;;1522777;76;794;-68
2024/03/28 07:30:20;;;;;;;;;;;20.30;47.40;;;;;;1519911;76;751;-68
2024/03/28 07:32:22;;;;;;;;;;;20.30;47.40;;;;;;1523501;76;657;-69
2024/03/28 07:34:25;;;;;;;;;;;20.30;47.40;;;;;;1521181;76;756;-72
2024/03/28 07:36:26;;;;;;;;;;;20.30;47.30;;;;;;1527126;76;1930;-72
2024/03/28 07:38:28;;;;;;;;;;;20.30;47.30;;;;;;1523185;76;730;-72
2024/03/28 07:40:30;;;;;;;;;;;20.30;47.30;;;;;;1522207;76;1551;-68
2024/03/28 07:42:32;;;;;;;;;;;20.40;47.40;;;;;;1544535;76;797;-68
2024/03/28 07:44:34;;;;;;;;;;;20.50;47.50;;;;;;1535859;76;831;-69
2024/03/28 07:46:36;;;;;;;;;;;20.50;47.50;;;;;;1536324;76;1138;-70
2024/03/28 07:48:38;;;;;;;;;;;20.40;47.30;;;;;;1536057;75;695;-71
2024/03/28 07:50:39;;;;;;;;;;;20.40;47.30;;;;;;1532081;75;789;-69
2024/03/28 07:52:43;;;;;;;;;;;20.50;47.50;;;;;;1536121;76;813;-72
2024/03/28 07:54:46;;;;;;;;;;;20.40;47.40;;;;;;1535948;75;1509;-69
2024/03/28 07:56:48;;;;;;;;;;;20.40;47.30;;;;;;1534696;75;1935;-73
2024/03/28 07:58:50;;;;;;;;;;;20.50;47.40;;;;;;1536799;76;723;-69
2024/03/28 08:00:52;;;;;;;;;;;20.40;47.30;;;;;;1535608;76;692;-72
2024/03/28 08:02:54;;;;;;;;;;;20.40;47.30;;;;;;1535435;76;719;-70
2024/03/28 08:04:59;;;;;;;;;;;20.50;47.50;;;;;;1536178;76;761;-73
2024/03/28 08:07:00;;;;;;;;;;;20.40;47.30;;;;;;1532215;76;1480;-69
2024/03/28 08:09:02;;;;;;;;;;;20.40;47.30;;;;;;1529477;75;1564;-74
2024/03/28 08:11:09;;;;;;;;;;;20.50;47.40;;;;;;1527221;76;642;-70
2024/03/28 08:13:07;;;;;;;;;;;20.50;47.40;;;;;;1529985;76;1618;-69
2024/03/28 08:15:09;;;;;;;;;;;20.40;47.30;;;;;;1530351;75;1123;-70
2024/03/28 08:17:11;;;;;;;;;;;20.50;47.30;;;;;;1525756;76;1944;-69
2024/03/28 08:19:13;;;;;;;;;;;20.40;47.30;;;;;;1532229;75;750;-72
2024/03/28 08:21:17;;;;;;;;;;;20.40;47.20;;;;;;1530186;75;786;-69
2024/03/28 08:23:19;;;;;;;;;;;20.40;47.20;;;;;;1529930;75;1335;-69
2024/03/28 08:25:22;;;;;;;;;;;20.40;47.20;;;;;;1526885;77;1157;-69
2024/03/28 08:27:24;;;;;;;;;;;20.40;47.30;;;;;;1536265;76;702;-69
2024/03/28 08:29:26;;;;;;;;;;;20.40;47.30;;;;;;1538260;75;807;-69
2024/03/28 08:31:27;;;;;;;;;;;20.40;47.30;;;;;;1531050;75;725;-67
2024/03/28 08:33:34;;;;;;;;;;;20.50;47.30;;;;;;1531742;75;690;-68
2024/03/28 08:35:33;;;;;;;;;;;20.50;47.30;;;;;;1528558;75;1615;-71
2024/03/28 08:37:37;;;;;;;;;;;20.40;47.20;;;;;;1538026;75;1957;-70
2024/03/28 08:39:38;;;;;;;;;;;20.40;47.20;;;;;;1544899;75;1729;-71
2024/03/28 08:41:40;;;;;;;;;;;20.40;47.20;;;;;;1532351;76;731;-68
2024/03/28 08:43:48;;;;;;;;;;;20.40;47.20;;;;;;1535985;75;802;-70
2024/03/28 08:45:47;;;;;;;;;;;20.50;47.20;;;;;;1533998;74;1457;-69
2024/03/28 08:47:50;;;;;;;;;;;20.40;47.20;;;;;;1535570;76;710;-67
2024/03/28 08:49:51;;;;;;;;;;;20.40;47.10;;;;;;1528882;75;725;-69
2024/03/28 08:51:53;;;;;;;;;;;20.50;47.30;;;;;;1537088;76;1508;-69
2024/03/28 08:53:57;;;;;;;;;;;20.50;47.20;;;;;;1532915;76;795;-72
2024/03/28 08:56:00;;;;;;;;;;;20.40;47.10;;;;;;1534301;76;1224;-68
2024/03/28 08:58:03;;;;;;;;;;;20.40;47.10;;;;;;1527927;77;1952;-67
2024/03/28 09:00:11;;;;;;;;;;;20.40;47.10;;;;;;1529072;76;782;-69
2024/03/28 09:02:10;;;;;;;;;;;20.40;47.10;;;;;;1533267;76;1439;-70
2024/03/28 09:04:17;;;;;;;;;;;20.40;47.10;;;;;;1535191;75;781;-67
2024/03/28 09:06:15;;;;;;;;;;;20.30;47.10;;;;;;1531403;75;1669;-67
2024/03/28 09:08:19;;;;;;;;;;;20.40;47.10;;;;;;1536573;75;799;-68
2024/03/28 09:10:21;;;;;;;;;;;20.40;47.10;;;;;;1535730;76;725;-69
2024/03/28 09:12:24;;;;;;;;;;;20.40;47.10;;;;;;1531071;76;748;-70
2024/03/28 09:14:26;;;;;;;;;;;20.40;47.10;;;;;;1530168;77;819;-69
2024/03/28 09:16:32;;;;;;;;;;;20.40;47.10;;;;;;1535486;75;1932;-68
2024/03/28 09:18:36;;;;;;;;;;;20.40;47.10;;;;;;1539184;75;1483;-69
2024/03/28 09:20:38;;;;;;;;;;;20.40;47.10;;;;;;1528165;76;835;-70
2024/03/28 09:22:40;;;;;;;;;;;20.40;47.10;;;;;;1543223;76;812;-69
2024/03/28 09:24:42;;;;;;;;;;;20.40;47.10;;;;;;1538372;75;798;-68
2024/03/28 09:26:44;;;;;;;;;;;20.40;47.10;;;;;;1531668;75;1168;-69
2024/03/28 09:28:50;;;;;;;;;;;20.40;47.10;;;;;;1530099;75;688;-69
2024/03/28 09:30:52;;;;;;;;;;;20.40;47.10;;;;;;1533694;76;798;-69
2024/03/28 09:32:54;;;;;;;;;;;20.40;47.10;;;;;;1529535;75;1594;-68
2024/03/28 09:34:56;;;;;;;;;;;20.40;47.00;;;;;;1519516;77;761;-67
2024/03/28 09:36:58;;;;;;;;;;;20.40;47.00;;;;;;1543435;76;1948;-68
2024/03/28 09:39:00;;;;;;;;;;;20.40;47.00;;;;;;1535094;75;682;-69
2024/03/28 09:41:02;;;;;;;;;;;20.40;47.00;;;;;;1533927;75;710;-67
2024/03/28 09:43:04;;;;;;;;;;;20.40;47.00;;;;;;1515121;77;1128;-67
2024/03/28 09:45:06;;;;;;;;;;;20.40;47.00;;;;;;1536617;77;1142;-68
2024/03/28 09:47:08;;;;;;;;;;;20.40;47.00;;;;;;1535397;75;1506;-69
2024/03/28 09:49:11;;;;;;;;;;;20.40;46.90;;;;;;1509002;77;863;-68
2024/03/28 09:51:13;;;;;;;;;;;20.40;47.00;;;;;;1538185;76;710;-68
2024/03/28 09:53:15;;;;;;;;;;;20.40;47.00;;;;;;1533943;77;730;-68
2024/03/28 09:55:17;;;;;;;;;;;20.40;46.90;;;;;;1533816;76;1108;-69
2024/03/28 09:57:19;;;;;;;;;;;20.30;46.90;;;;;;1526030;75;1945;-68
2024/03/28 09:59:21;;;;;;;;;;;20.40;46.90;;;;;;1533243;75;697;-67
2024/03/28 10:01:23;;;;;;;;;;;20.40;46.90;;;;;;1532103;75;1566;-68
2024/03/28 10:03:26;;;;;;;;;;;20.40;46.90;;;;;;1522795;75;729;-69
2024/03/28 10:05:29;;;;;;;;;;;20.40;46.80;;;;;;1532619;75;1132;-69
2024/03/28 10:07:31;;;;;;;;;;;20.40;46.80;;;;;;1535506;75;753;-68
2024/03/28 10:09:33;;;;;;;;;;;20.30;46.90;;;;;;1541419;75;684;-69
2024/03/28 10:11:35;;;;;;;;;;;20.30;46.90;;;;;;1535132;76;744;-68
2024/03/28 10:13:37;;;;;;;;;;;20.40;46.80;;;;;;1515857;77;1148;-68
2024/03/28 10:15:39;;;;;;;;;;;20.30;46.80;;;;;;1539373;75;1621;-68
2024/03/28 10:17:41;;;;;;;;;;;20.40;46.80;;;;;;1550972;75;1946;-68
2024/03/28 10:19:42;;;;;;;;;;;20.40;46.80;;;;;;1533431;76;727;-68
2024/03/28 10:21:45;;;;;;;;;;;20.30;46.80;;;;;;1542722;76;672;-68
2024/03/28 10:23:46;;;;;;;;;;;20.40;46.80;;;;;;1524454;75;774;-69
2024/03/28 10:25:49;;;;;;;;;;;20.40;46.80;;;;;;1524331;76;1147;-70
2024/03/28 10:27:51;;;;;;;;;;;20.50;46.80;;;;;;1525263;76;639;-69
2024/03/28 10:29:56;;;;;;;;;;;20.40;46.80;;;;;;1522014;75;1577;-72
2024/03/28 10:32:05;;;;;;;;;;;20.70;46.90;;;;;;1543515;75;839;-70
2024/03/28 10:34:16;;;;;;;;;;;20.30;46.70;;;;;;1542390;75;753;-72
2024/03/28 10:36:19;;;;;;;;;;;20.40;46.70;;;;;;1532891;76;1142;-69
2024/03/28 10:38:21;;;;;;;;;;;20.40;46.70;;;;;;1531451;76;1927;-71
2024/03/28 10:40:23;;;;;;;;;;;20.40;46.60;;;;;;1541782;75;657;-71
2024/03/28 10:42:26;;;;;;;;;;;20.40;46.60;;;;;;1526578;77;991;-68
2024/03/28 10:44:30;;;;;;;;;;;20.30;46.60;;;;;;1542791;75;1587;-70
2024/03/28 10:46:32;;;;;;;;;;;20.30;46.60;;;;;;1533303;75;1635;-70
2024/03/28 10:48:34;;;;;;;;;;;20.40;46.60;;;;;;1536623;76;805;-69
2024/03/28 10:50:37;;;;;;;;;;;20.40;46.60;;;;;;1530962;75;705;-72
2024/03/28 10:52:42;;;;;;;;;;;20.30;46.50;;;;;;1534505;75;790;-70
2024/03/28 10:54:47;;;;;;;;;;;20.80;46.80;;;;;;1532208;75;798;-69
2024/03/28 10:56:48;;;;;;;;;;;20.30;46.50;;;;;;1526111;77;1928;-69
2024/03/28 10:58:50;;;;;;;;;;;20.40;46.50;;;;;;1527751;76;796;-68
2024/03/28 11:00:52;;;;;;;;;;;20.30;46.50;;;;;;1534214;76;792;-70
2024/03/28 11:02:54;;;;;;;;;;;20.30;46.50;;;;;;1510827;77;819;-71
2024/03/28 11:04:56;;;;;;;;;;;20.30;46.50;;;;;;1532270;76;731;-68
2024/03/28 11:06:58;;;;;;;;;;;20.30;46.50;;;;;;1526926;77;1084;-69
2024/03/28 11:09:03;;;;;;;;;;;20.30;46.50;;;;;;1527868;76;744;-72
2024/03/28 11:11:05;;;;;;;;;;;20.30;46.40;;;;;;1536056;75;1611;-68
2024/03/28 11:13:07;;;;;;;;;;;20.30;46.40;;;;;;1532414;76;684;-67
2024/03/28 11:15:11;;;;;;;;;;;20.30;46.30;;;;;;1534702;75;1153;-70
2024/03/28 11:17:13;;;;;;;;;;;20.30;46.30;;;;;;1532217;75;1941;-69
2024/03/28 11:19:18;;;;;;;;;;;20.30;46.30;;;;;;1527534;76;1294;-69
2024/03/28 11:21:27;;;;;;;;;;;20.20;46.10;;;;;;1536693;76;1354;-69
2024/03/28 11:23:31;;;;;;;;;;;20.20;46.10;;;;;;1542126;75;1767;-68
2024/03/28 11:25:34;;;;;;;;;;;20.30;46.30;;;;;;1535012;76;1593;-70
2024/03/28 11:27:36;;;;;;;;;;;20.30;46.30;;;;;;1533562;76;1323;-66
2024/03/28 11:29:38;;;;;;;;;;;20.30;46.20;;;;;;1535013;75;1339;-69
2024/03/28 11:31:40;;;;;;;;;;;20.20;46.00;;;;;;1531106;76;1331;-69
2024/03/28 11:33:42;;;;;;;;;;;20.30;46.20;;;;;;1519195;75;1362;-68
2024/03/28 11:35:43;;;;;;;;;;;20.30;46.20;;;;;;1524117;75;1115;-70
2024/03/28 11:37:47;;;;;;;;;;;20.30;46.10;;;;;;1522102;76;1957;-71
2024/03/28 11:39:49;;;;;;;;;;;20.30;46.10;;;;;;1527725;75;1378;-67
2024/03/28 11:41:51;;;;;;;;;;;20.30;46.10;;;;;;1523999;77;787;-69
2024/03/28 11:43:53;;;;;;;;;;;20.20;46.00;;;;;;1539594;75;846;-70
2024/03/28 11:46:08;;;;;;;;;;;20.20;46.00;;;;;;1529455;75;1114;-68
2024/03/28 11:48:07;;;;;;;;;;;20.30;46.10;;;;;;1534744;75;1616;-68
2024/03/28 11:50:11;;;;;;;;;;;20.20;46.00;;;;;;1538787;75;707;-69
2024/03/28 11:52:13;;;;;;;;;;;20.20;46.00;;;;;;1534499;75;1677;-70
2024/03/28 11:54:18;;;;;;;;;;;20.30;46.10;;;;;;1526014;75;1587;-71
2024/03/28 11:56:23;;;;;;;;;;;20.30;46.00;;;;;;1533996;75;1126;-68
2024/03/28 11:58:27;;;;;;;;;;;20.20;45.90;;;;;;1523524;75;1927;-71
2024/03/28 12:00:29;;;;;;;;;;;20.20;45.90;;;;;;1534277;75;686;-68
2024/03/28 12:02:31;;;;;;;;;;;20.20;46.00;;;;;;1535394;75;1235;-70
2024/03/28 12:04:33;;;;;;;;;;;20.20;45.90;;;;;;1526410;75;785;-68
2024/03/28 12:06:35;;;;;;;;;;;20.20;46.00;;;;;;1534233;75;1194;-68
2024/03/28 12:08:38;;;;;;;;;;;20.20;45.90;;;;;;1532257;76;1531;-67
2024/03/28 12:10:40;;;;;;;;;;;20.30;46.10;;;;;;1531032;75;692;-69
2024/03/28 12:12:42;;;;;;;;;;;20.20;45.90;;;;;;1528086;75;785;-68
2024/03/28 12:14:44;;;;;;;;;;;20.80;46.30;;;;;;1540213;75;770;-68
2024/03/28 12:16:46;;;;;;;;;;;20.20;45.90;;;;;;1531348;75;1159;-69